Karluk, AK (99608)

9:05 PM AKDT on September 04, 2015 (GMT -0800)
Akhiok AP, Akhiok, AK | | Change Station
CLOSE
Current Station
Airport
Location: Akhiok AP, Akhiok, AK,
Elevation: 43 ft
Nearby Weather Stations

Elev 43 ft 56.94 °N, 154.18 °W | Updated 9 minutes ago

Mostly Cloudy
Mostly Cloudy
54 °F
Feels Like 54 °F
N
15
Wind Variable Wind from NW
Gusts 22 mph

Today
High -- | Low -- °F
--% Chance of Precip.
Yesterday
High -- | Low -- °F
Precip. -- in
7:25 AM 9:07 PM
Waning Gibbous, 52% visible
Pressure 29.96 in
Visibility 10.0 miles
Clouds Scattered Clouds 2600 ft
Mostly Cloudy 4300 ft
Mostly Cloudy 6000 ft
Dew Point 47 °F
Humidity 77%
Rainfall 0.00 in
Snow Depth Not available.
UV 0 out of 12
Pollen Not available.
Air Quality Not available.
Flu Activity Not available.
METAR PAKH 050456Z AUTO 32013G19KT 10SM SCT026 BKN043 BKN060 12/08 A2995 RMK AO2 TSNO T01220083 BKN V SCT SLP143 $
Pressure 29.96 in
Visibility 10.0 miles
Clouds Scattered Clouds 2600 ft
Mostly Cloudy 4300 ft
Mostly Cloudy 6000 ft
Dew Point 47 °F
Humidity 77%
Rainfall 0.00 in
Snow Depth Not available.
UV 0 out of 12
Pollen Not available.
Air Quality Not available.
Flu Activity Not available.
METAR PAKH 050456Z AUTO 32013G19KT 10SM SCT026 BKN043 BKN060 12/08 A2995 RMK AO2 TSNO T01220083 BKN V SCT SLP143 $

10-Day Weather Forecast

×

Almanac

Astronomy

Sep. 04, 2015 Rise Set
Actual Time
Civil Twilight
Nautical Twilight
Astronomical Twilight
Moon
Length of Visible Light
Length of Day
Tomorrow will be .
, % of the Moon is Illuminated

Today's Extremes

State Highs State Lows

Community

WunderPhotos

Upload Photos

1,852,426 photos uploaded!

WunderBlogs® & News

Nearby

Air Quality

  Air Quality AQ Index Pollutant
Not available.

Snow Depth

Station Depth Elevation

Earthquake Activity

City Distance Mag. Time & Date
Minimum magnitude displayed is 2.5.

Coastal Water Temperatures

Place Temperature

Stations

Nearby Weather Stations

Station Location Temp. Windchill Dew Point Humidity Wind Precip. Elev Updated Type